Time;durP1;ratioP1;P1;durP2;ratioP2;P2;SDS_P1;SDS_P2;PMS_P1;PMS_P2;Temp;Humidity;BMP_temperature;BMP_pressure;BME280_temperature;BME280_humidity;BME280_pressure;Samples;Min_cycle;Max_cycle;Signal;HPM_P1;HPM_P2
2022/05/05 00:00:00;;;;;;;11.38;8.52;;;13.00;99.90;;;;;;5016067;28;20235;-47
2022/05/05 00:02:28;;;;;;;20.13;8.13;;;12.80;99.90;;;;;;5015698;28;20236;-48
2022/05/05 00:04:55;;;;;;;9.57;8.27;;;12.70;99.90;;;;;;5015395;28;20209;-48
2022/05/05 00:07:22;;;;;;;8.65;7.82;;;12.60;99.90;;;;;;5015952;28;20272;-48
2022/05/05 00:09:50;;;;;;;12.23;8.27;;;12.60;99.90;;;;;;5014933;28;20558;-48
2022/05/05 00:15:05;;;;;;;12.50;10.77;;;12.50;99.90;;;;;;5015020;28;20215;-48
2022/05/05 00:17:34;;;;;;;8.85;7.95;;;12.50;99.90;;;;;;5015310;28;20213;-50
2022/05/05 00:20:01;;;;;;;12.95;8.90;;;12.60;99.90;;;;;;5014370;28;20575;-51
2022/05/05 00:22:28;;;;;;;11.32;8.95;;;12.70;99.90;;;;;;5014079;28;20287;-49
2022/05/05 00:24:56;;;;;;;13.85;9.63;;;12.70;99.90;;;;;;5014759;28;20259;-50
2022/05/05 00:27:23;;;;;;;8.98;8.07;;;12.60;99.90;;;;;;5014667;28;20217;-50
2022/05/05 00:29:51;;;;;;;10.43;9.10;;;12.50;99.90;;;;;;5014925;28;20232;-48
2022/05/05 00:32:19;;;;;;;9.43;8.52;;;12.40;99.90;;;;;;5014088;28;20201;-48
2022/05/05 00:34:46;;;;;;;9.55;8.73;;;12.50;99.90;;;;;;5014496;28;20280;-47
2022/05/05 00:37:13;;;;;;;10.82;9.23;;;12.40;99.90;;;;;;5014353;28;20208;-48
2022/05/05 00:39:41;;;;;;;19.65;10.00;;;12.10;99.90;;;;;;5015377;28;20236;-50
2022/05/05 00:42:12;;;;;;;11.52;9.00;;;12.10;99.90;;;;;;5014468;28;20224;-48
2022/05/05 00:44:39;;;;;;;10.30;9.00;;;12.20;99.90;;;;;;5015033;28;20232;-49
2022/05/05 00:47:07;;;;;;;10.70;9.65;;;12.20;99.90;;;;;;5014154;28;20204;-52
2022/05/05 00:49:34;;;;;;;12.88;8.98;;;12.20;99.90;;;;;;5014648;28;20238;-48
2022/05/05 00:52:01;;;;;;;9.75;8.80;;;12.20;99.90;;;;;;5014188;28;20288;-49
2022/05/05 00:54:29;;;;;;;9.60;8.57;;;12.20;99.90;;;;;;5014435;28;20208;-49
2022/05/05 00:56:56;;;;;;;13.85;8.70;;;12.20;99.90;;;;;;5018270;28;20275;-51
2022/05/05 00:59:23;;;;;;;11.40;8.52;;;12.10;99.90;;;;;;5018453;28;20278;-50
2022/05/05 01:01:50;;;;;;;9.43;8.60;;;12.10;99.90;;;;;;5018025;28;20424;-51
2022/05/05 01:04:19;;;;;;;15.25;11.13;;;12.10;99.90;;;;;;5017592;28;20452;-50
2022/05/05 01:06:46;;;;;;;12.75;9.60;;;12.00;99.90;;;;;;5018275;28;20402;-47
2022/05/05 01:09:14;;;;;;;14.43;10.85;;;11.90;99.90;;;;;;5018068;28;20224;-49
2022/05/05 01:11:41;;;;;;;9.65;8.75;;;11.90;99.90;;;;;;5018020;28;20455;-48
2022/05/05 01:14:08;;;;;;;16.48;10.30;;;11.80;99.90;;;;;;5017811;28;20294;-50
2022/05/05 01:16:36;;;;;;;12.10;10.57;;;11.80;99.90;;;;;;5018277;28;20201;-48
2022/05/05 01:19:03;;;;;;;10.13;9.20;;;11.80;99.90;;;;;;5018067;28;20299;-47
2022/05/05 01:21:30;;;;;;;11.25;9.88;;;11.70;99.90;;;;;;5017664;28;20413;-49
2022/05/05 01:23:58;;;;;;;14.60;10.20;;;11.70;99.90;;;;;;5011161;28;20232;-49
2022/05/05 01:29:12;;;;;;;16.15;10.85;;;11.60;99.90;;;;;;5017844;28;20234;-49
2022/05/05 01:31:40;;;;;;;12.02;10.20;;;11.60;99.90;;;;;;5018005;28;20291;-52
2022/05/05 01:34:07;;;;;;;10.02;9.02;;;11.60;99.90;;;;;;5017985;28;20212;-51
2022/05/05 01:36:34;;;;;;;12.20;10.95;;;11.60;99.90;;;;;;5017764;28;20303;-49
2022/05/05 01:39:02;;;;;;;12.23;10.80;;;11.60;99.90;;;;;;5017436;28;20795;-49
2022/05/05 01:41:30;;;;;;;11.57;10.48;;;11.60;99.90;;;;;;5017213;28;20212;-50
2022/05/05 01:44:01;;;;;;;13.60;10.07;;;11.60;99.90;;;;;;5018177;28;20295;-46
2022/05/05 01:46:28;;;;;;;11.38;10.05;;;11.60;99.90;;;;;;5017891;28;20206;-50
2022/05/05 01:48:58;;;;;;;12.23;10.70;;;11.30;99.90;;;;;;5017697;28;20693;-49
2022/05/05 01:51:25;;;;;;;10.68;9.63;;;11.40;99.90;;;;;;5017229;28;20214;-48
2022/05/05 01:53:52;;;;;;;14.85;10.80;;;11.40;99.90;;;;;;5017441;28;20218;-48
2022/05/05 01:56:20;;;;;;;11.70;10.50;;;11.40;99.90;;;;;;5017564;28;20241;-47
2022/05/05 01:58:48;;;;;;;12.95;11.02;;;11.30;99.90;;;;;;5019470;28;20232;-53
2022/05/05 02:01:15;;;;;;;14.65;11.75;;;11.10;99.90;;;;;;5019113;28;20288;-51
2022/05/05 02:03:45;;;;;;;14.48;11.05;;;11.20;99.90;;;;;;5017963;28;20232;-48
2022/05/05 02:06:13;;;;;;;12.20;11.00;;;11.10;99.90;;;;;;5017345;28;20526;-49
2022/05/05 02:08:40;;;;;;;14.20;12.70;;;11.00;99.90;;;;;;5017630;28;20220;-49
2022/05/05 02:11:08;;;;;;;13.88;12.40;;;11.10;99.90;;;;;;5017594;28;20231;-49
2022/05/05 02:13:35;;;;;;;14.15;12.43;;;11.10;99.90;;;;;;5036151;23;20487;-47
2022/05/05 02:16:03;;;;;;;14.70;11.90;;;11.00;99.90;;;;;;5015316;28;20204;-51
2022/05/05 02:18:31;;;;;;;22.70;11.70;;;11.20;99.90;;;;;;5014674;28;20501;-46
2022/05/05 02:20:58;;;;;;;14.57;11.10;;;11.40;99.90;;;;;;5014455;28;20463;-46
2022/05/05 02:23:25;;;;;;;11.73;10.63;;;11.50;99.90;;;;;;5014965;28;20515;-48
2022/05/05 02:25:56;;;;;;;20.15;11.50;;;11.40;99.90;;;;;;5015355;28;20205;-48
2022/05/05 02:28:23;;;;;;;15.35;12.98;;;11.50;99.90;;;;;;5014324;28;20211;-49
2022/05/05 02:30:51;;;;;;;17.88;14.57;;;11.30;99.90;;;;;;5015557;28;20215;-48
2022/05/05 02:33:18;;;;;;;15.07;12.60;;;11.30;99.90;;;;;;5015270;28;20209;-48
2022/05/05 02:38:42;;;;;;;16.73;12.40;;;11.00;99.90;;;;;;5015286;28;20219;-52
2022/05/05 02:38:44;;;;;;;18.15;13.27;;;10.80;99.90;;;;;;5014659;28;20276;-50
2022/05/05 02:41:12;;;;;;;15.43;12.18;;;10.80;99.90;;;;;;5015069;28;20192;-50
2022/05/05 02:43:39;;;;;;;15.20;13.57;;;10.80;99.90;;;;;;5014743;28;20224;-45
2022/05/05 02:46:07;;;;;;;16.92;12.32;;;10.80;99.90;;;;;;5003782;28;20213;-49
2022/05/05 02:48:35;;;;;;;15.82;14.25;;;10.70;99.90;;;;;;5008466;28;20205;-50
2022/05/05 02:51:03;;;;;;;20.50;13.88;;;10.60;99.90;;;;;;5004358;28;20223;-49
2022/05/05 02:56:16;;;;;;;14.63;13.23;;;10.70;99.90;;;;;;5013520;28;20280;-48
2022/05/05 02:58:43;;;;;;;15.10;13.20;;;10.70;99.90;;;;;;5015276;28;20207;-49
2022/05/05 03:01:11;;;;;;;15.73;14.20;;;10.60;99.90;;;;;;5010662;28;20216;-46
2022/05/05 03:03:38;;;;;;;18.65;13.20;;;10.40;99.90;;;;;;5006020;28;20302;-46
2022/05/05 03:06:05;;;;;;;18.48;14.77;;;10.60;99.90;;;;;;5007230;28;20400;-48
2022/05/05 03:08:32;;;;;;;15.60;13.88;;;10.60;99.90;;;;;;5008119;28;20208;-46
2022/05/05 03:11:00;;;;;;;15.35;13.50;;;10.50;99.90;;;;;;5014514;28;20559;-46
2022/05/05 03:13:27;;;;;;;16.25;13.82;;;10.30;99.90;;;;;;5014334;28;20212;-50
2022/05/05 03:15:54;;;;;;;15.95;14.10;;;10.30;99.90;;;;;;5014270;28;20238;-51
2022/05/05 03:18:22;;;;;;;22.88;16.60;;;10.40;99.90;;;;;;5013888;28;20212;-46
2022/05/05 03:20:49;;;;;;;16.90;13.90;;;10.50;99.90;;;;;;5013538;28;20212;-46
2022/05/05 03:23:17;;;;;;;17.13;15.32;;;10.50;99.90;;;;;;5014480;28;20488;-46
2022/05/05 03:25:44;;;;;;;15.82;13.93;;;10.60;99.90;;;;;;5015604;28;20322;-46
2022/05/05 03:28:14;;;;;;;15.77;14.10;;;10.50;99.90;;;;;;5013747;28;20214;-47
2022/05/05 03:30:42;;;;;;;15.98;12.75;;;10.30;99.90;;;;;;5014325;28;20208;-47
2022/05/05 03:33:09;;;;;;;17.38;15.35;;;10.40;99.90;;;;;;5013759;28;20212;-47
2022/05/05 03:35:36;;;;;;;16.23;13.15;;;10.50;99.90;;;;;;5014630;28;20212;-46
2022/05/05 03:38:03;;;;;;;16.20;13.02;;;10.40;99.90;;;;;;5014204;28;20211;-48
2022/05/05 03:40:30;;;;;;;14.90;12.45;;;10.20;99.90;;;;;;5014517;28;20204;-46
2022/05/05 03:42:58;;;;;;;18.30;16.02;;;10.30;99.90;;;;;;5014756;28;20586;-45
2022/05/05 03:45:25;;;;;;;21.95;14.90;;;10.20;99.90;;;;;;5014091;28;20610;-52
2022/05/05 03:47:53;;;;;;;16.25;14.55;;;10.20;99.90;;;;;;5014354;28;20239;-50
2022/05/05 03:50:20;;;;;;;17.80;13.98;;;10.40;99.90;;;;;;5014029;28;20216;-44
2022/05/05 03:52:47;;;;;;;15.85;14.15;;;10.50;99.90;;;;;;5014261;28;20447;-49
2022/05/05 03:55:14;;;;;;;14.02;12.65;;;10.70;99.90;;;;;;5013994;28;20232;-46
2022/05/05 03:57:42;;;;;;;17.23;14.98;;;10.70;99.90;;;;;;5013987;28;20287;-49
2022/05/05 04:00:09;;;;;;;21.95;14.70;;;10.70;99.90;;;;;;5011671;28;20212;-49
2022/05/05 04:02:37;;;;;;;18.65;15.15;;;10.70;99.90;;;;;;5002296;28;20421;-44
2022/05/05 04:05:04;;;;;;;17.40;13.13;;;10.90;99.90;;;;;;5013320;28;20625;-48
2022/05/05 04:07:32;;;;;;;19.45;15.18;;;10.90;99.90;;;;;;5014354;28;20426;-47
2022/05/05 04:09:59;;;;;;;21.55;15.32;;;10.80;99.90;;;;;;5013831;28;20207;-49
2022/05/05 04:12:26;;;;;;;18.85;15.13;;;10.70;99.90;;;;;;5013789;28;20371;-50
2022/05/05 04:14:53;;;;;;;17.40;13.50;;;10.80;99.90;;;;;;4997729;28;20247;-46
2022/05/05 04:17:20;;;;;;;16.58;14.25;;;10.90;99.90;;;;;;5005233;28;20237;-52
2022/05/05 04:19:48;;;;;;;19.75;16.00;;;10.90;99.90;;;;;;5014145;28;20250;-48
2022/05/05 04:22:16;;;;;;;18.10;15.98;;;10.80;99.90;;;;;;5013311;28;20215;-47
2022/05/05 04:24:46;;;;;;;19.13;15.60;;;11.00;99.90;;;;;;5014215;28;20571;-48
2022/05/05 04:27:13;;;;;;;23.55;16.33;;;11.00;99.90;;;;;;4984171;28;20249;-47
2022/05/05 04:29:41;;;;;;;22.42;17.25;;;11.10;99.90;;;;;;4996903;28;20206;-49
2022/05/05 04:32:08;;;;;;;20.10;16.20;;;11.20;99.90;;;;;;5011157;28;20515;-48
2022/05/05 04:34:36;;;;;;;21.85;15.45;;;11.30;99.90;;;;;;5007634;28;20235;-46
2022/05/05 04:37:03;;;;;;;22.20;16.73;;;11.30;99.90;;;;;;4999775;28;20263;-48
2022/05/05 04:39:31;;;;;;;21.70;16.33;;;11.40;99.90;;;;;;5010439;28;20205;-47
2022/05/05 04:41:58;;;;;;;17.48;15.68;;;11.50;99.90;;;;;;5020680;28;20219;-51
2022/05/05 04:44:25;;;;;;;16.33;14.60;;;11.70;99.90;;;;;;5020943;28;20232;-49
2022/05/05 04:46:52;;;;;;;20.10;17.27;;;11.90;99.90;;;;;;5021216;28;20212;-50
2022/05/05 04:49:23;;;;;;;21.75;17.02;;;12.20;99.90;;;;;;5000441;28;20219;-47
2022/05/05 04:51:50;;;;;;;21.02;16.75;;;12.40;99.90;;;;;;5006667;28;20193;-48
2022/05/05 04:54:18;;;;;;;17.33;15.30;;;12.60;99.90;;;;;;5013212;28;20229;-45
2022/05/05 04:56:45;;;;;;;18.25;16.15;;;12.40;99.90;;;;;;5013522;28;20221;-47
2022/05/05 04:59:15;;;;;;;17.70;15.80;;;12.30;99.90;;;;;;5001688;28;20522;-49
2022/05/05 05:01:42;;;;;;;23.55;16.85;;;12.30;99.90;;;;;;5004883;28;20271;-47
2022/05/05 05:04:10;;;;;;;16.27;14.60;;;12.40;99.90;;;;;;5011683;28;20256;-46
2022/05/05 05:06:37;;;;;;;20.60;16.17;;;12.40;99.90;;;;;;5012220;28;20205;-52
2022/05/05 05:09:05;;;;;;;27.35;16.48;;;12.40;99.90;;;;;;5003309;28;20512;-46
2022/05/05 05:11:32;;;;;;;19.52;15.35;;;12.70;99.90;;;;;;5013502;28;20209;-47
2022/05/05 05:13:59;;;;;;;16.38;14.57;;;12.80;99.90;;;;;;5010584;28;20237;-48
2022/05/05 05:16:26;;;;;;;19.63;16.05;;;13.10;99.90;;;;;;5012183;28;20243;-47
2022/05/05 05:19:07;;;;;;;16.55;14.88;;;13.40;99.90;;;;;;5012116;28;20248;-49
2022/05/05 05:21:34;;;;;;;19.50;15.95;;;13.50;99.90;;;;;;4995484;28;20633;-50
2022/05/05 05:24:02;;;;;;;19.73;14.95;;;13.70;99.90;;;;;;5009712;28;20244;-48
2022/05/05 05:26:29;;;;;;;29.58;15.52;;;13.90;99.90;;;;;;5011734;28;20244;-52
2022/05/05 05:28:57;;;;;;;19.02;14.35;;;14.10;99.90;;;;;;5012455;28;20496;-45
2022/05/05 05:31:24;;;;;;;16.55;14.85;;;14.20;99.90;;;;;;5011867;28;20220;-47
2022/05/05 05:33:51;;;;;;;13.73;11.00;;;14.20;99.90;;;;;;5012576;28;20234;-53
2022/05/05 05:36:20;;;;;;;19.52;14.80;;;14.30;99.90;;;;;;5011837;28;20547;-47
2022/05/05 05:38:47;;;;;;;17.02;14.95;;;14.50;99.90;;;;;;5012517;28;20210;-48
2022/05/05 05:41:15;;;;;;;20.48;13.38;;;14.70;99.90;;;;;;5012366;28;20207;-47
2022/05/05 05:43:42;;;;;;;15.70;13.87;;;14.70;99.90;;;;;;5015702;28;20237;-48
2022/05/05 05:46:09;;;;;;;16.13;14.50;;;14.90;99.90;;;;;;5015807;28;20491;-52
2022/05/05 05:48:38;;;;;;;17.05;14.60;;;15.00;99.90;;;;;;5014242;28;20268;-48
2022/05/05 05:51:06;;;;;;;18.48;14.30;;;15.00;99.90;;;;;;5015237;28;20257;-45
2022/05/05 05:53:36;;;;;;;16.97;13.67;;;15.20;99.90;;;;;;5009525;28;20287;-51
2022/05/05 05:56:04;;;;;;;18.90;13.20;;;15.40;99.90;;;;;;5007534;28;20425;-48
2022/05/05 05:58:35;;;;;;;20.43;13.00;;;15.80;99.90;;;;;;5014514;28;20535;-51
2022/05/05 06:01:03;;;;;;;18.93;15.13;;;16.00;99.90;;;;;;5014988;28;20591;-47
2022/05/05 06:06:16;;;;;;;15.70;12.93;;;16.30;99.90;;;;;;5014495;28;20460;-47
2022/05/05 06:08:44;;;;;;;18.77;13.10;;;16.40;99.90;;;;;;5015305;28;20440;-51
2022/05/05 06:11:11;;;;;;;15.33;13.83;;;16.60;99.90;;;;;;5005813;28;20419;-47
2022/05/05 06:13:38;;;;;;;17.77;11.57;;;16.90;99.90;;;;;;5004878;28;20503;-48
2022/05/05 06:16:06;;;;;;;17.93;11.53;;;17.10;99.90;;;;;;5014795;28;20500;-48
2022/05/05 06:18:37;;;;;;;22.27;12.20;;;17.40;99.90;;;;;;5014436;28;20427;-50
2022/05/05 06:21:05;;;;;;;14.73;12.07;;;17.60;99.90;;;;;;5014141;28;20424;-53
2022/05/05 06:23:32;;;;;;;13.90;12.50;;;18.00;99.90;;;;;;5014256;28;20576;-49
2022/05/05 06:26:00;;;;;;;16.30;13.63;;;18.40;99.90;;;;;;5014510;28;20500;-51
2022/05/05 06:28:27;;;;;;;15.70;11.70;;;18.50;99.90;;;;;;5014227;28;20413;-52
2022/05/05 06:30:55;;;;;;;15.07;11.40;;;18.80;99.90;;;;;;5014241;28;20440;-54
2022/05/05 06:33:22;;;;;;;15.30;11.30;;;19.10;99.90;;;;;;5014342;28;20549;-52
2022/05/05 06:35:55;;;;;;;31.30;12.80;;;19.50;99.90;;;;;;5014100;28;20409;-50
2022/05/05 06:38:23;;;;;;;17.70;11.30;;;20.30;99.90;;;;;;5014258;28;20414;-51
2022/05/05 06:40:51;;;;;;;13.93;12.00;;;21.00;99.90;;;;;;5013968;28;20513;-53
2022/05/05 06:43:18;;;;;;;15.13;10.87;;;21.60;99.90;;;;;;5014270;28;20451;-52
2022/05/05 06:45:46;;;;;;;14.33;12.03;;;21.50;99.90;;;;;;5014263;28;20700;-48
2022/05/05 06:48:13;;;;;;;13.27;11.37;;;21.90;99.90;;;;;;5014247;28;20435;-49
2022/05/05 06:50:41;;;;;;;13.43;11.97;;;23.10;99.90;;;;;;5013585;28;20664;-51
2022/05/05 06:53:08;;;;;;;15.27;10.77;;;24.30;99.90;;;;;;5012825;28;20428;-55
2022/05/05 06:55:35;;;;;;;16.63;11.57;;;24.90;99.90;;;;;;5014321;28;20442;-51
2022/05/05 06:58:03;;;;;;;20.57;11.40;;;24.70;99.10;;;;;;5014425;28;20698;-48
2022/05/05 07:03:16;;;;;;;30.60;12.33;;;27.00;94.50;;;;;;5013317;28;20792;-54
2022/05/05 07:05:44;;;;;;;12.67;11.37;;;28.50;91.10;;;;;;5013340;28;20788;-44
2022/05/05 07:08:11;;;;;;;14.37;10.90;;;30.10;85.50;;;;;;5013406;28;20801;-54
2022/05/05 07:10:53;;;;;;;12.50;11.30;;;30.80;81.70;;;;;;5013243;28;20474;-46
2022/05/05 07:13:31;;;;;;;11.90;10.60;;;30.40;76.70;;;;;;5013259;28;20515;-51
2022/05/05 07:15:58;;;;;;;11.43;10.43;;;32.10;72.20;;;;;;5014243;28;20552;-49
2022/05/05 07:18:26;;;;;;;11.93;10.83;;;32.10;67.60;;;;;;5012802;28;20505;-50
2022/05/05 07:20:56;;;;;;;11.37;10.17;;;32.00;66.30;;;;;;5012339;28;20792;-51
2022/05/05 07:23:26;;;;;;;10.03;9.27;;;32.70;65.40;;;;;;5012451;28;20435;-52
2022/05/05 07:25:57;;;;;;;14.20;10.70;;;34.10;62.30;;;;;;5012941;28;20502;-51
2022/05/05 07:28:33;;;;;;;10.20;9.40;;;34.90;59.00;;;;;;5012866;28;20449;-53
2022/05/05 07:31:00;;;;;;;14.60;10.97;;;34.90;58.70;;;;;;4996316;28;20655;-51
2022/05/05 07:33:28;;;;;;;12.10;10.23;;;35.10;57.20;;;;;;5003339;28;20526;-51
2022/05/05 07:35:55;;;;;;;15.57;10.90;;;33.90;59.40;;;;;;5011449;28;20445;-48
2022/05/05 07:38:25;;;;;;;11.07;10.03;;;34.50;57.60;;;;;;5011966;28;20465;-55
2022/05/05 07:40:53;;;;;;;10.10;9.20;;;34.30;57.10;;;;;;5011036;28;20571;-53
2022/05/05 07:43:21;;;;;;;11.17;9.97;;;35.90;55.90;;;;;;5011809;28;20819;-50
2022/05/05 07:45:48;;;;;;;11.17;10.27;;;36.70;54.10;;;;;;5012031;28;20569;-53
2022/05/05 07:48:16;;;;;;;13.03;10.50;;;35.80;54.80;;;;;;5012327;28;20435;-52
2022/05/05 07:50:44;;;;;;;16.67;11.23;;;33.90;56.30;;;;;;5012626;28;20641;-49
2022/05/05 07:53:11;;;;;;;10.80;9.80;;;34.30;57.20;;;;;;5012549;28;20434;-54
2022/05/05 07:55:38;;;;;;;11.67;10.57;;;36.20;55.20;;;;;;5012169;28;20668;-52
2022/05/05 07:58:06;;;;;;;13.63;8.43;;;35.80;54.80;;;;;;5012755;28;20763;-51
2022/05/05 08:00:33;;;;;;;9.70;8.70;;;36.80;53.30;;;;;;5012825;28;20438;-48
2022/05/05 08:03:00;;;;;;;10.43;9.40;;;36.10;53.90;;;;;;5013030;28;20496;-49
2022/05/05 08:05:28;;;;;;;8.80;8.00;;;37.30;52.20;;;;;;5012340;28;20704;-50
2022/05/05 08:07:55;;;;;;;10.83;10.00;;;37.40;51.90;;;;;;5012605;28;20750;-50
2022/05/05 08:10:22;;;;;;;25.50;10.27;;;37.90;51.20;;;;;;5012353;28;20442;-52
2022/05/05 08:12:49;;;;;;;10.50;9.13;;;38.90;49.80;;;;;;5012235;28;20800;-48
2022/05/05 08:15:17;;;;;;;13.90;10.47;;;37.80;49.40;;;;;;5000969;28;20486;-50
2022/05/05 08:17:46;;;;;;;11.40;9.03;;;36.40;50.50;;;;;;5003526;28;20527;-53
2022/05/05 08:20:14;;;;;;;11.00;10.00;;;37.10;50.50;;;;;;5011465;28;20457;-54
2022/05/05 08:22:41;;;;;;;9.03;8.27;;;37.80;49.10;;;;;;5012087;28;20709;-53
2022/05/05 08:30:41;;;;;;;10.40;9.43;;;37.70;48.40;;;;;;5012775;28;20438;-49
2022/05/05 08:33:09;;;;;;;9.80;8.90;;;38.00;47.40;;;;;;5012056;28;20797;-50
2022/05/05 08:35:36;;;;;;;11.27;9.17;;;38.30;46.90;;;;;;5013115;28;20682;-52
2022/05/05 08:38:04;;;;;;;9.30;8.50;;;38.10;47.30;;;;;;5011060;28;20525;-46
2022/05/05 08:40:34;;;;;;;10.03;9.07;;;38.30;47.30;;;;;;5011892;28;20677;-51
2022/05/05 08:43:01;;;;;;;8.07;7.47;;;39.50;45.50;;;;;;5012078;28;20441;-51
2022/05/05 08:45:33;;;;;;;8.67;7.97;;;38.10;44.60;;;;;;5011833;28;20694;-49
2022/05/05 08:48:03;;;;;;;9.27;8.47;;;37.90;45.40;;;;;;5011731;28;20478;-49
2022/05/05 08:50:32;;;;;;;9.60;8.70;;;37.70;45.10;;;;;;5011320;28;20633;-47
2022/05/05 08:53:03;;;;;;;8.47;7.40;;;37.20;46.40;;;;;;5005653;28;20462;-48
2022/05/05 08:55:31;;;;;;;12.00;9.03;;;37.10;45.20;;;;;;5004799;28;20458;-49
2022/05/05 08:58:00;;;;;;;9.20;8.30;;;36.80;44.20;;;;;;5011565;28;20449;-48
2022/05/05 09:00:28;;;;;;;12.63;10.23;;;36.10;45.60;;;;;;5011332;28;20470;-50
2022/05/05 09:02:58;;;;;;;9.43;8.57;;;35.60;46.90;;;;;;5011679;28;20753;-54
2022/05/05 09:05:49;;;;;;;9.03;8.37;;;34.80;48.00;;;;;;5011621;28;20490;-50
2022/05/05 09:08:26;;;;;;;8.70;7.33;;;33.70;48.50;;;;;;5011786;28;20829;-51
2022/05/05 09:10:56;;;;;;;8.57;7.77;;;33.30;48.10;;;;;;5012227;28;20537;-51
2022/05/05 09:13:28;;;;;;;7.77;7.10;;;34.10;48.60;;;;;;5010969;28;20430;-51
2022/05/05 09:15:57;;;;;;;8.60;7.90;;;34.30;47.40;;;;;;5012012;28;20529;-50
2022/05/05 09:18:29;;;;;;;9.20;8.50;;;33.00;48.60;;;;;;5015477;28;20501;-51
2022/05/05 09:20:58;;;;;;;8.97;7.87;;;31.60;50.60;;;;;;5014873;28;20450;-51
2022/05/05 09:23:34;;;;;;;9.53;8.57;;;31.40;50.30;;;;;;5009956;28;20450;-50
2022/05/05 09:26:06;;;;;;;9.77;8.83;;;31.50;51.40;;;;;;5012008;28;20491;-51
2022/05/05 09:28:35;;;;;;;9.67;8.70;;;30.30;52.20;;;;;;5015133;28;20459;-51
2022/05/05 09:31:07;;;;;;;9.90;9.10;;;28.40;55.20;;;;;;5015320;28;20473;-49
2022/05/05 09:33:34;;;;;;;8.30;7.50;;;27.10;57.20;;;;;;5015098;28;20473;-52
2022/05/05 09:36:06;;;;;;;9.50;8.60;;;26.30;59.00;;;;;;5014995;28;20449;-54
2022/05/05 09:38:56;;;;;;;8.93;8.00;;;25.80;60.10;;;;;;5014609;28;20450;-51
2022/05/05 09:41:33;;;;;;;14.23;9.00;;;25.70;61.20;;;;;;5014991;28;20927;-50
2022/05/05 09:44:21;;;;;;;7.43;6.83;;;25.20;62.00;;;;;;5015130;28;20506;-52
2022/05/05 09:46:48;;;;;;;9.13;7.83;;;24.80;61.60;;;;;;5015203;28;20648;-48
2022/05/05 09:49:19;;;;;;;9.70;8.80;;;24.40;63.20;;;;;;5014835;28;20960;-48
2022/05/05 09:57:41;;;;;;;10.83;8.13;;;24.00;64.10;;;;;;5014261;28;20439;-53
2022/05/05 10:05:45;;;;;;;13.20;6.50;;;23.90;63.80;;;;;;5014989;28;20478;-51
2022/05/05 10:08:30;;;;;;;12.63;7.10;;;24.00;63.80;;;;;;5014024;28;20727;-50
2022/05/05 10:10:57;;;;;;;8.63;7.73;;;24.30;62.70;;;;;;5014779;28;20515;-49
2022/05/05 10:13:26;;;;;;;6.60;6.10;;;24.10;62.50;;;;;;5013670;28;20734;-49
2022/05/05 10:15:54;;;;;;;7.60;5.40;;;23.80;63.70;;;;;;5015136;28;20435;-49
2022/05/05 10:18:27;;;;;;;9.63;6.77;;;24.10;63.70;;;;;;5013699;28;20442;-48
2022/05/05 10:20:57;;;;;;;6.83;6.13;;;24.20;64.50;;;;;;5014756;28;20610;-49
2022/05/05 10:23:40;;;;;;;7.80;5.60;;;24.40;62.90;;;;;;5014209;28;20786;-50
2022/05/05 10:26:10;;;;;;;5.43;5.03;;;24.40;61.80;;;;;;5014938;28;20592;-50
2022/05/05 10:28:44;;;;;;;15.30;6.17;;;24.40;61.80;;;;;;5014807;28;20416;-48
2022/05/05 10:31:34;;;;;;;5.47;4.90;;;24.30;62.70;;;;;;5014559;28;20548;-47
2022/05/05 10:34:08;;;;;;;6.33;5.73;;;24.30;60.90;;;;;;5013920;28;20454;-49
2022/05/05 10:36:36;;;;;;;6.90;5.50;;;24.30;59.70;;;;;;5014238;28;20563;-52
2022/05/05 10:39:17;;;;;;;5.77;5.20;;;23.90;61.10;;;;;;5014078;28;20481;-50
2022/05/05 10:41:45;;;;;;;5.83;5.30;;;23.80;63.40;;;;;;5013365;28;20438;-50
2022/05/05 10:44:25;;;;;;;7.00;5.90;;;24.20;64.70;;;;;;5013480;28;20505;-49
2022/05/05 10:47:06;;;;;;;7.87;6.50;;;24.60;63.80;;;;;;5013607;28;20545;-50
2022/05/05 10:49:42;;;;;;;7.27;6.60;;;24.50;61.80;;;;;;5013560;28;20436;-52
2022/05/05 10:52:09;;;;;;;6.63;6.00;;;24.40;62.40;;;;;;5013290;28;20458;-50
2022/05/05 10:54:42;;;;;;;6.10;5.60;;;24.50;63.70;;;;;;5014010;28;20711;-51
2022/05/05 10:57:25;;;;;;;7.00;6.27;;;24.40;62.50;;;;;;5013816;28;20446;-50
2022/05/05 11:00:10;;;;;;;6.53;5.93;;;24.30;62.60;;;;;;5013960;28;20424;-50
2022/05/05 11:02:41;;;;;;;6.90;4.67;;;24.20;63.10;;;;;;5013584;28;20689;-50
2022/05/05 11:05:28;;;;;;;7.60;6.57;;;24.20;62.70;;;;;;5013217;28;20565;-54
2022/05/05 11:08:08;;;;;;;6.10;5.60;;;24.30;64.20;;;;;;5013747;28;20506;-51
2022/05/05 11:10:41;;;;;;;7.80;7.10;;;24.20;64.00;;;;;;5013022;28;20711;-51
2022/05/05 11:13:28;;;;;;;7.17;6.47;;;24.20;65.10;;;;;;5013415;28;20430;-50
2022/05/05 11:21:37;;;;;;;5.77;5.33;;;24.30;65.30;;;;;;5012920;28;20461;-50
2022/05/05 11:24:05;;;;;;;6.63;6.13;;;24.40;65.20;;;;;;5013707;28;20454;-50
2022/05/05 11:26:32;;;;;;;5.67;5.17;;;24.40;64.10;;;;;;5012743;28;20877;-52
2022/05/05 11:29:00;;;;;;;5.47;5.07;;;24.50;64.90;;;;;;5011749;28;20465;-49
2022/05/05 11:31:30;;;;;;;6.77;5.80;;;24.40;63.40;;;;;;5013381;28;20780;-47
2022/05/05 11:34:03;;;;;;;6.40;5.80;;;24.30;65.40;;;;;;5012852;28;20482;-55
2022/05/05 11:36:35;;;;;;;5.67;5.27;;;24.10;63.90;;;;;;5012996;28;20520;-53
2022/05/05 11:39:03;;;;;;;6.03;5.43;;;23.80;65.30;;;;;;5012821;28;20733;-47
2022/05/05 11:41:31;;;;;;;5.40;4.90;;;23.50;64.90;;;;;;5012935;28;20424;-47
2022/05/05 11:44:20;;;;;;;6.13;5.53;;;23.50;65.00;;;;;;5011987;28;20773;-46
2022/05/05 11:46:47;;;;;;;6.10;5.20;;;23.60;64.10;;;;;;5013287;28;20505;-49
2022/05/05 11:49:14;;;;;;;5.67;5.27;;;23.60;64.80;;;;;;5012427;28;20409;-50
2022/05/05 11:51:42;;;;;;;5.67;5.13;;;23.80;64.90;;;;;;5013059;28;20763;-53
2022/05/05 11:54:11;;;;;;;6.60;5.80;;;23.60;65.00;;;;;;5012917;28;20480;-51
2022/05/05 11:56:47;;;;;;;6.53;6.00;;;23.50;65.30;;;;;;5012312;28;20801;-46
2022/05/05 12:02:10;;;;;;;5.50;5.00;;;23.20;64.40;;;;;;5012491;28;20443;-51
2022/05/05 12:04:42;;;;;;;11.63;4.80;;;22.90;65.00;;;;;;5012349;28;20461;-48
2022/05/05 12:07:19;;;;;;;4.80;4.37;;;23.10;65.10;;;;;;5013815;28;20445;-51
2022/05/05 12:09:50;;;;;;;5.37;4.80;;;23.30;65.10;;;;;;5005420;28;20413;-55
2022/05/05 12:12:22;;;;;;;5.47;4.97;;;23.70;65.10;;;;;;5013916;28;20740;-54
2022/05/05 12:15:01;;;;;;;5.40;4.93;;;24.30;65.10;;;;;;5013738;28;20466;-50
2022/05/05 12:17:39;;;;;;;5.20;4.67;;;24.70;63.50;;;;;;5014165;28;20491;-46
2022/05/05 12:20:07;;;;;;;4.57;4.27;;;25.20;62.00;;;;;;5013016;28;20769;-51
2022/05/05 12:22:38;;;;;;;5.13;4.53;;;25.70;60.20;;;;;;5008053;28;20441;-50
2022/05/05 12:25:14;;;;;;;6.33;5.27;;;26.10;59.20;;;;;;5004757;28;20837;-49
2022/05/05 12:27:41;;;;;;;5.77;5.27;;;25.80;59.60;;;;;;5014101;28;20866;-47
2022/05/05 12:30:10;;;;;;;5.50;5.10;;;25.70;60.60;;;;;;5013567;28;20414;-52
2022/05/05 12:32:50;;;;;;;5.70;5.20;;;25.90;58.60;;;;;;5014011;28;20871;-48
2022/05/05 12:35:35;;;;;;;4.97;4.47;;;25.70;58.70;;;;;;5013210;28;20525;-48
2022/05/05 12:38:05;;;;;;;5.40;5.00;;;25.70;60.60;;;;;;5013540;28;20414;-46
2022/05/05 12:40:41;;;;;;;5.33;4.83;;;26.00;59.00;;;;;;5012902;28;20428;-50
2022/05/05 12:43:13;;;;;;;3.93;3.53;;;26.10;58.70;;;;;;5013644;28;20454;-50
2022/05/05 12:45:41;;;;;;;4.30;4.00;;;26.40;57.90;;;;;;5012108;28;20540;-51
2022/05/05 12:48:10;;;;;;;4.63;4.23;;;26.30;57.60;;;;;;5013256;28;20434;-49
2022/05/05 12:50:46;;;;;;;3.63;3.33;;;25.60;57.80;;;;;;5011990;28;20507;-54
2022/05/05 13:01:52;;;;;;;10.53;4.00;;;26.40;56.30;;;;;;5012059;28;20449;-51
2022/05/05 13:04:20;;;;;;;6.20;5.60;;;26.50;57.70;;;;;;5012744;28;20544;-51
2022/05/05 13:06:53;;;;;;;6.17;5.57;;;26.50;57.90;;;;;;5013195;28;20481;-48
2022/05/05 13:09:20;;;;;;;6.63;6.03;;;26.30;59.30;;;;;;5013117;28;20431;-51
2022/05/05 13:11:53;;;;;;;6.73;5.90;;;25.40;68.60;;;;;;5013466;28;20779;-49
2022/05/05 13:14:21;;;;;;;7.73;6.93;;;24.40;76.60;;;;;;5001858;28;20474;-48
2022/05/05 13:16:50;;;;;;;7.77;6.10;;;23.10;82.10;;;;;;4994177;28;20435;-51
2022/05/05 13:19:20;;;;;;;6.37;5.77;;;22.30;86.60;;;;;;4978152;28;20529;-51
2022/05/05 13:21:50;;;;;;;8.87;6.63;;;21.80;89.20;;;;;;4975866;28;20423;-50
2022/05/05 13:24:18;;;;;;;6.73;6.10;;;21.50;90.60;;;;;;4977686;28;20464;-48
2022/05/05 13:26:46;;;;;;;6.50;5.60;;;21.20;91.80;;;;;;4978145;28;20867;-49
2022/05/05 13:29:14;;;;;;;8.80;6.33;;;21.00;93.10;;;;;;5001205;28;20537;-48
2022/05/05 13:31:41;;;;;;;8.10;5.43;;;20.70;94.40;;;;;;5013359;28;20491;-50
2022/05/05 13:34:09;;;;;;;5.97;5.47;;;20.60;95.50;;;;;;5012809;28;20437;-49